Latest Weather Observations for Cabramurra

IDN60801

Issued at 5:03 pm EST Wednesday 29 June 2016 (issued every 30 minutes, with the page automatically refreshed every 10 minutes)

About weather observations | Map of weather stations | Latest weather observations for NSW | Other Formats
Station Details ID: 072161 Name: CABRAMURRA SMHEA AWS Lat: -35.94 Lon: 148.38 Height: 1482.4 m
Data from the previous 72 hours. | See also: Recent months at Cabramurra
Date/Time
EST
Temp
°C
App
Temp
°C
Dew
Point
°C
Rel
Hum
%
Delta-T
°C
Wind Press
QNH
hPa
Press
MSL
hPa
Rain since
9am
mm
Dir  Spd
km/h
Gust
km/h
Spd
kts
Gust
kts
29/05:00pm 2.5 -0.8 2.4 99 0.0 N 9 13 5 7 - - 0.0
29/04:30pm 3.4 1.3 1.9 90 0.7 NW 2 7 1 4 - - 0.0
29/04:00pm 4.2 2.2 2.1 86 0.9 N 2 7 1 4 - - 0.0
29/03:30pm 4.2 1.4 1.9 85 1.0 WNW 6 11 3 6 - - 0.0
29/03:00pm 4.4 1.6 1.8 83 1.1 WNW 6 11 3 6 - - 0.0
29/02:30pm 3.1 0.0 1.6 90 0.6 W 7 13 4 7 - - 0.0
29/02:00pm 3.1 -0.3 1.6 90 0.6 W 9 17 5 9 - - 0.0
29/01:30pm 3.3 0.3 1.7 89 0.7 WNW 7 13 4 7 - - 0.0
29/01:00pm 3.4 -0.1 1.1 85 1.0 WNW 9 15 5 8 - - 0.0
29/12:30pm 3.7 0.5 0.9 82 1.2 NW 7 15 4 8 - - 0.0
29/12:00pm 4.1 2.1 0.1 75 1.7 CALM 0 6 0 3 - - 0.0
29/11:30am 2.7 0.5 -1.6 73 1.7 CALM 0 0 0 0 - - 0.0
29/11:00am 2.5 0.4 -0.8 79 1.3 CALM 0 0 0 0 - - 0.0
29/10:30am 1.6 -1.7 -1.0 83 1.0 WSW 6 9 3 5 - - 0.0
29/10:00am 0.9 -3.2 -0.5 90 0.6 SW 11 15 6 8 - - 0.0
29/09:30am 0.9 -4.0 -0.7 89 0.6 SSW 15 19 8 10 - - 0.0
29/09:00am 0.7 -3.9 -1.2 87 0.8 SSW 13 19 7 10 - - 0.0
29/08:30am 0.4 -4.2 -1.3 88 0.7 S 13 15 7 8 - - 0.0
29/08:00am 0.2 -4.1 -1.4 89 0.6 SSW 11 15 6 8 - - 0.0
29/07:30am 0.6 -4.4 -1.0 89 0.7 S 15 20 8 11 - - 0.0
29/07:00am 0.0 -5.0 -1.1 92 0.4 S 15 19 8 10 - - 0.0
29/06:30am -0.5 -5.4 -0.6 99 0.0 S 15 19 8 10 - - 0.0
29/06:00am 0.0 -4.8 -0.1 99 0.0 SSW 15 22 8 12 - - 0.0
29/05:30am 0.2 -4.2 0.1 99 0.0 SSW 13 17 7 9 - - 0.0
29/05:00am 0.2 -4.2 0.1 99 0.0 S 13 19 7 10 - - 0.0
29/04:30am 0.1 -4.7 0.0 99 0.0 SSW 15 24 8 13 - - 0.0
29/04:00am -0.2 -4.7 -0.3 99 0.0 SSW 13 15 7 8 - - 0.0
29/03:30am 0.2 -3.9 0.1 99 0.0 SSE 11 19 6 10 - - 0.0
29/03:00am 0.1 -4.4 0.0 99 0.0 S 13 19 7 10 - - 0.0
29/02:30am 0.4 -4.0 0.3 99 0.0 SSW 13 19 7 10 - - 0.0
29/02:00am 0.4 -4.0 0.3 99 0.0 SSW 13 19 7 10 - - 0.0
29/01:30am 0.3 -4.1 0.2 99 0.0 SSW 13 26 7 14 - - 0.0
29/01:00am 0.2 -5.4 0.1 99 0.0 SSW 19 22 10 12 - - 0.0
29/12:30am 0.3 -4.9 0.2 99 0.0 SW 17 24 9 13 - - 0.0
29/12:00am 0.4 -5.7 0.3 99 0.0 SW 22 28 12 15 - - 0.0
 
Date/Time
EST
Temp
°C
App
Temp
°C
Dew
Point
°C
Rel
Hum
%
Delta-T
°C
Wind Press
QNH
hPa
Press
MSL
hPa
Rain since
9am
mm
Dir  Spd
km/h
Gust
km/h
Spd
kts
Gust
kts
28/11:30pm 0.4 -5.3 0.3 99 0.0 SW 20 26 11 14 - - 0.0
28/11:00pm 0.2 -5.9 0.1 99 0.0 SW 22 33 12 18 - - 0.0
28/10:30pm 0.0 -5.2 -0.1 99 0.0 SW 17 24 9 13 - - 0.0
28/10:00pm -0.2 -4.7 -0.3 99 0.0 SSW 13 19 7 10 - - 0.0
28/09:30pm -0.3 -4.8 -0.4 99 0.0 SSW 13 20 7 11 - - 0.0
28/09:00pm -0.3 -5.2 -0.4 99 0.0 SW 15 22 8 12 - - 0.0
28/08:30pm -0.8 -5.0 -0.9 99 0.0 SSW 11 15 6 8 - - 0.0
28/08:00pm -0.6 -5.9 -0.7 99 0.0 SSW 17 24 9 13 - - 0.0
28/07:30pm -0.6 -5.2 -0.7 99 0.0 SSW 13 19 7 10 - - 0.0
28/07:00pm -0.5 -5.8 -0.6 99 0.0 SW 17 26 9 14 - - 0.0
28/06:30pm -0.6 -5.5 -0.7 99 0.0 SW 15 22 8 12 - - 0.0
28/06:00pm -0.6 -5.2 -0.7 99 0.0 SSW 13 17 7 9 - - 0.0
28/05:30pm -0.7 -5.3 -0.8 99 0.0 SSW 13 19 7 10 - - 0.0
28/05:00pm -0.8 -5.4 -0.9 99 0.0 SW 13 19 7 10 - - 0.0
28/04:30pm -0.9 -5.5 -1.0 99 0.0 SW 13 19 7 10 - - 0.0
28/04:00pm -0.6 -5.2 -0.7 99 0.0 SW 13 19 7 10 - - 0.0
28/03:30pm -0.7 -5.6 -0.8 99 0.0 W 15 24 8 13 - - 0.0
28/03:00pm -0.6 -4.8 -0.7 99 0.0 WSW 11 20 6 11 - - 0.0
28/02:30pm -0.3 -4.4 -0.4 99 0.0 W 11 17 6 9 - - 0.0
28/02:00pm -0.4 -4.5 -0.5 99 0.0 W 11 13 6 7 - - 0.0
28/01:30pm -0.4 -5.7 -0.5 99 0.0 W 17 26 9 14 - - 0.0
28/01:00pm -0.2 -4.3 -0.3 99 0.0 W 11 17 6 9 - - 0.0
28/12:30pm -0.6 -5.2 -1.0 97 0.1 WSW 13 20 7 11 - - 0.0
28/12:00pm -0.4 -5.8 -1.4 93 0.4 WSW 17 30 9 16 - - 0.0
28/11:30am -0.6 -4.8 -0.7 99 0.0 SW 11 17 6 9 - - 0.0
28/11:00am -0.1 -4.7 -0.9 94 0.3 W 13 19 7 10 - - 0.0
28/10:30am 0.0 -5.2 -2.4 84 0.9 W 15 22 8 12 - - 0.0
28/10:00am -0.1 -4.5 -2.5 84 0.9 W 11 17 6 9 - - 0.0
28/09:30am -1.2 -6.0 -2.8 89 0.5 WSW 13 17 7 9 - - 0.0
28/09:00am -1.8 -5.9 -3.2 90 0.4 SW 9 13 5 7 - - 0.0
28/08:30am -1.8 -5.9 -2.8 93 0.3 SW 9 13 5 7 - - 0.0
28/08:00am -1.8 -6.6 -2.2 97 0.1 SW 13 19 7 10 - - 0.0
28/07:30am -1.8 -7.3 -2.1 98 0.0 SW 17 24 9 13 - - 0.0
28/07:00am -1.7 -7.8 -2.0 98 0.0 WSW 20 30 11 16 - - 0.0
28/06:30am -1.7 -7.7 -1.8 99 0.0 SW 20 30 11 16 - - 0.0
28/06:00am -1.7 -8.9 -1.8 99 0.0 SW 26 35 14 19 - - 0.0
28/05:30am -1.8 -8.2 -1.9 99 -0.1 SW 22 30 12 16 - - 0.0
28/05:00am -1.6 -8.0 -1.7 99 0.0 SW 22 32 12 17 - - 0.0
28/04:30am -1.6 -8.4 -1.7 99 0.0 SW 24 32 13 17 - - 0.0
28/04:00am -1.5 -7.9 -1.6 99 0.0 SW 22 32 12 17 - - 0.0
28/03:30am -1.5 -8.3 -1.6 99 0.0 SW 24 41 13 22 - - 0.0
28/03:00am -1.5 -8.3 -1.6 99 0.0 SW 24 35 13 19 - - 0.0
28/02:30am -1.6 -9.1 -1.7 99 0.0 SW 28 39 15 21 - - 0.0
28/02:00am -2.1 -6.5 -2.2 99 -0.1 W 11 22 6 12 - - 0.0
28/01:30am -2.2 -5.6 -2.3 99 -0.1 W 6 11 3 6 - - 0.0
28/01:00am -1.9 -5.9 -2.0 99 -0.1 SW 9 15 5 8 - - 0.0
28/12:30am -2.0 -5.4 -2.1 99 -0.1 WSW 6 13 3 7 - - 0.0
28/12:00am -2.0 -5.6 -2.1 99 -0.1 W 7 15 4 8 - - 0.0
 
Date/Time
EST
Temp
°C
App
Temp
°C
Dew
Point
°C
Rel
Hum
%
Delta-T
°C
Wind Press
QNH
hPa
Press
MSL
hPa
Rain since
9am
mm
Dir  Spd
km/h
Gust
km/h
Spd
kts
Gust
kts
27/11:30pm -1.6 -6.3 -1.7 99 0.0 SSW 13 17 7 9 - - 0.0
27/11:00pm -1.8 -6.5 -1.9 99 -0.1 SSW 13 15 7 8 - - 0.0
27/10:30pm -2.0 -7.5 -2.1 99 -0.1 SSW 17 24 9 13 - - 0.0
27/10:00pm -2.2 -8.1 -2.3 99 -0.1 S 19 26 10 14 - - 0.0
27/09:30pm -2.3 -7.1 -2.4 99 -0.1 SSW 13 19 7 10 - - 0.0
27/09:00pm -2.5 -7.3 -2.6 99 -0.1 SW 13 17 7 9 - - 0.0
27/08:30pm -2.6 -7.4 -2.7 99 -0.1 SSW 13 19 7 10 - - 0.0
27/08:00pm -2.9 -7.8 -3.0 99 -0.1 S 13 20 7 11 - - 0.0
27/07:30pm -3.1 -8.0 -3.2 99 -0.1 SSW 13 19 7 10 - - 0.0
27/07:00pm -3.0 -7.5 -3.1 99 -0.1 SW 11 13 6 7 - - 0.0
27/06:30pm -3.0 -7.5 -3.1 99 -0.1 SW 11 17 6 9 - - 0.0
27/06:00pm -2.9 -7.8 -3.0 99 -0.1 SW 13 20 7 11 - - 0.0
27/05:30pm -2.8 -6.9 -2.9 99 -0.1 SW 9 15 5 8 - - 0.0
27/05:00pm -2.8 -7.3 -2.9 99 -0.1 SSW 11 17 6 9 - - 0.0
27/04:30pm -2.5 -6.2 -2.6 99 -0.1 SW 7 15 4 8 - - 0.0
27/04:00pm -2.3 -6.3 -2.4 99 -0.1 WSW 9 15 5 8 - - 0.0
27/03:30pm -1.6 -5.1 -1.7 99 0.0 W 7 13 4 7 - - 0.0
27/03:00pm -1.0 -4.8 -1.1 99 0.0 WNW 9 13 5 7 - - 0.0
27/02:30pm -1.1 -3.6 -1.2 99 0.0 WNW 2 7 1 4 - - 0.0
27/02:00pm -0.8 -3.7 -0.9 99 0.0 WNW 4 9 2 5 - - 0.0
27/01:30pm -0.4 -3.8 -0.7 98 0.1 WNW 7 11 4 6 - - 0.0
27/01:00pm 0.3 -3.5 -1.1 90 0.6 WNW 9 13 5 7 - - 0.0
27/12:30pm 1.3 -2.2 -1.3 83 1.0 WNW 7 9 4 5 - - 0.0
27/12:00pm 0.7 -2.6 -1.2 87 0.8 WNW 6 9 3 5 - - 0.0
27/11:30am 0.0 -3.4 -2.1 86 0.8 NW 6 11 3 6 - - 0.0
27/11:00am 0.0 -3.6 -3.5 77 1.3 W 6 13 3 7 - - 0.0
27/10:30am -0.5 -5.4 -3.0 83 0.9 SSW 13 17 7 9 - - 0.0
27/10:00am -0.9 -5.4 -3.4 83 0.9 SSW 11 15 6 8 - - 0.0
27/09:30am -0.9 -4.7 -4.1 79 1.1 SSW 7 11 4 6 - - 0.0
27/09:00am -1.2 -5.3 -3.4 85 0.7 S 9 13 5 7 - - 0.0
27/08:30am -1.8 -6.0 -3.7 87 0.6 S 9 13 5 7 - - 0.0
27/08:00am -1.5 -6.0 -3.1 89 0.5 S 11 15 6 8 - - 0.0
27/07:30am -1.8 -6.7 -3.2 90 0.4 SSW 13 15 7 8 - - 0.0
27/07:00am -1.4 -6.4 -4.2 81 0.9 S 13 17 7 9 - - 0.0
27/06:30am -1.5 -6.3 -2.6 92 0.3 SSW 13 20 7 11 - - 0.0
27/06:00am -1.4 -6.2 -2.7 91 0.4 SSW 13 17 7 9 - - 0.0
27/05:30am -1.4 -6.1 -2.1 95 0.2 S 13 15 7 8 - - 0.0
27/05:00am -1.4 -5.0 -2.0 96 0.2 S 7 11 4 6 - - 0.0
27/04:30am -1.6 -5.6 -2.6 93 0.3 SSW 9 11 5 6 - - 0.0
27/04:00am -1.6 -5.7 -2.9 91 0.4 SSW 9 13 5 7 - - 0.0
27/03:30am -1.4 -5.4 -2.0 96 0.2 SSW 9 11 5 6 - - 0.0
27/03:00am -1.4 -5.7 -1.5 99 0.0 SSW 11 13 6 7 - - 0.0
27/02:30am -1.7 -4.8 -2.7 93 0.3 SSW 4 11 2 6 - - 0.0
27/02:00am -1.7 -4.1 -3.1 90 0.4 CALM 0 0 0 0 - - 0.0
27/01:30am -1.9 -4.2 -2.6 95 0.2 CALM 0 0 0 0 - - 0.0
27/01:00am -1.5 -5.0 -2.6 92 0.3 NNW 6 9 3 5 - - 0.0
27/12:30am -1.5 -4.6 -2.9 90 0.4 NW 4 9 2 5 - - 0.0
27/12:00am -1.1 -3.4 -2.7 89 0.5 CALM 0 2 0 1 - - 0.0
 
Date/Time
EST
Temp
°C
App
Temp
°C
Dew
Point
°C
Rel
Hum
%
Delta-T
°C
Wind Press
QNH
hPa
Press
MSL
hPa
Rain since
9am
mm
Dir  Spd
km/h
Gust
km/h
Spd
kts
Gust
kts
26/11:30pm -1.4 -3.7 -2.7 91 0.4 CALM 0 0 0 0 - - 0.0
26/11:00pm -1.3 -3.7 -3.2 87 0.6 CALM 0 0 0 0 - - 0.0
26/10:30pm -0.8 -3.3 -3.8 80 1.0 CALM 0 0 0 0 - - 0.0
26/10:00pm -0.8 -3.6 -3.5 82 0.9 N 2 7 1 4 - - 0.0
26/09:30pm -0.1 -4.4 -4.9 70 1.7 SE 9 15 5 8 - - 0.0
26/09:00pm -0.4 -4.5 -3.3 81 1.0 SE 9 11 5 6 - - 0.0
26/08:30pm -0.7 -3.5 -3.1 84 0.8 S 2 7 1 4 - - 0.0
26/08:00pm -0.9 -3.3 -3.1 85 0.8 CALM 0 0 0 0 - - 0.0
26/07:30pm -0.8 -3.1 -2.7 87 0.7 CALM 0 0 0 0 - - 0.0
26/07:00pm -1.2 -3.8 -1.9 95 0.2 WNW 2 6 1 3 - - 0.0
26/06:30pm -0.1 -2.4 -2.2 86 0.8 CALM 0 0 0 0 - - 0.0
26/06:00pm -0.6 -4.4 -3.8 79 1.1 S 7 9 4 5 - - 0.0
26/05:30pm -1.1 -5.3 -4.3 79 1.1 SW 9 11 5 6 - - 0.0

Other Formats:

Comma delimited format used in spreadsheet applications
http://www.bom.gov.au/fwo/IDN60801/IDN60801.95916.axf

JavaScript Object Notation format (JSON) in row-major order
http://www.bom.gov.au/fwo/IDN60801/IDN60801.95916.json